Juticalpa, Honduras
Current Conditions -  °F | °C
As of 12:00 PM on Saturday 20 Dec 2014 (Local Time) from MHRO Reporting Station
Few Clouds Few Clouds  
Wind Chill: 82°   Ceiling: Unl
Heat Index: 88°   Visibility: 6mi
Dew Point: 73°   Wind: 6mph
Humidity: 74%   Direction: 90°E
Pressure: 29.97"   Gusts: NA
Location:  16.4°N, 86.22°W
Report Text: MHRO 201800Z 09005KT 9999 FEW020 28/23 Q1015 A2997 NOSIG
Loading
Personal Weather Stations






























Interactive Weather Map New forecast layout! Learn more

10-Day Weather Forecast

Advertisements
Track Severe Weather on mobile